Time;durP1;ratioP1;P1;durP2;ratioP2;P2;SDS_P1;SDS_P2;PMS_P1;PMS_P2;Temp;Humidity;BMP_temperature;BMP_pressure;BME280_temperature;BME280_humidity;BME280_pressure;Samples;Min_cycle;Max_cycle;Signal;HPM_P1;HPM_P2
2023/01/17 00:00:52;;;;;;;0.70;0.20;;;;;;;;;;5093472;28;20050;-87
2023/01/17 00:03:20;;;;;;;0.10;0.10;;;;;;;;;;5093447;28;20044;-88
2023/01/17 00:11:19;;;;;;;0.35;0.10;;;;;;;;;;5094316;28;20044;-88
2023/01/17 00:13:46;;;;;;;0.10;0.10;;;;;;;;;;5093096;28;20058;-88
2023/01/17 00:16:13;;;;;;;0.20;0.20;;;;;;;;;;5092855;28;20151;-87
2023/01/17 00:26:01;;;;;;;0.20;0.20;;;;;;;;;;5094010;28;20492;-88
2023/01/17 01:34:08;;;;;;;0.20;0.20;;;;;;;;;;5093352;28;20048;-90
2023/01/17 01:36:36;;;;;;;0.30;0.30;;;;;;;;;;5092335;28;20066;-89
2023/01/17 01:39:03;;;;;;;0.60;0.30;;;;;;;;;;5092370;28;20326;-90
2023/01/17 01:41:30;;;;;;;0.20;0.20;;;;;;;;;;5092422;28;20408;-88
2023/01/17 01:43:57;;;;;;;0.22;0.20;;;;;;;;;;5092063;28;20044;-88
2023/01/17 01:46:40;;;;;;;1.38;0.20;;;;;;;;;;5092015;28;20063;-90
2023/01/17 01:49:14;;;;;;;0.37;0.37;;;;;;;;;;5092163;28;20122;-91
2023/01/17 01:51:44;;;;;;;0.52;0.40;;;;;;;;;;5092241;28;20296;-89
2023/01/17 01:54:13;;;;;;;0.20;0.20;;;;;;;;;;5092226;28;20111;-89
2023/01/17 01:56:40;;;;;;;0.30;0.30;;;;;;;;;;5091871;28;20046;-85
2023/01/17 01:59:09;;;;;;;1.08;0.50;;;;;;;;;;5093599;28;20048;-89
2023/01/17 02:01:37;;;;;;;1.30;0.32;;;;;;;;;;5096053;28;20054;-89
2023/01/17 02:04:08;;;;;;;0.50;0.50;;;;;;;;;;5096195;28;20062;-88
2023/01/17 02:06:41;;;;;;;0.45;0.40;;;;;;;;;;5095517;28;20040;-88
2023/01/17 02:09:10;;;;;;;0.80;0.40;;;;;;;;;;5095429;28;20058;-87
2023/01/17 02:11:38;;;;;;;0.52;0.52;;;;;;;;;;5095727;28;20150;-89
2023/01/17 02:14:05;;;;;;;1.30;0.70;;;;;;;;;;5095808;28;20415;-87
2023/01/17 02:16:51;;;;;;;0.65;0.65;;;;;;;;;;5095160;28;20492;-87
2023/01/17 02:19:28;;;;;;;0.95;0.60;;;;;;;;;;5095401;28;20134;-89
2023/01/17 02:22:10;;;;;;;1.75;0.70;;;;;;;;;;5095401;28;20048;-87
2023/01/17 02:24:46;;;;;;;2.13;0.80;;;;;;;;;;5095289;28;20512;-88
2023/01/17 02:27:33;;;;;;;1.63;0.52;;;;;;;;;;5095031;28;20147;-86
2023/01/17 02:30:24;;;;;;;1.70;0.77;;;;;;;;;;5095061;28;20055;-88
2023/01/17 02:33:00;;;;;;;1.02;0.80;;;;;;;;;;5096116;28;20473;-87
2023/01/17 02:35:33;;;;;;;1.55;0.80;;;;;;;;;;5095001;28;20052;-85
2023/01/17 02:38:05;;;;;;;0.60;0.60;;;;;;;;;;5095175;28;20048;-87
2023/01/17 02:40:36;;;;;;;1.85;0.90;;;;;;;;;;5094882;28;20079;-86
2023/01/17 02:43:06;;;;;;;1.10;1.02;;;;;;;;;;5095808;28;20048;-86
2023/01/17 02:45:33;;;;;;;0.73;0.70;;;;;;;;;;5094738;28;20048;-86
2023/01/17 02:48:00;;;;;;;0.90;0.90;;;;;;;;;;5095547;28;20089;-87
2023/01/17 02:50:35;;;;;;;1.42;0.65;;;;;;;;;;5094745;28;20048;-87
2023/01/17 02:53:10;;;;;;;0.80;0.80;;;;;;;;;;5094751;28;20124;-86
2023/01/17 02:55:56;;;;;;;0.98;0.93;;;;;;;;;;5094441;28;20421;-86
2023/01/17 02:58:27;;;;;;;0.95;0.80;;;;;;;;;;5094453;28;20052;-87
2023/01/17 03:01:03;;;;;;;1.88;0.85;;;;;;;;;;5094515;28;20058;-86
2023/01/17 03:03:49;;;;;;;2.13;0.90;;;;;;;;;;5094485;28;20048;-85
2023/01/17 03:06:20;;;;;;;0.90;0.80;;;;;;;;;;5094357;28;20078;-87
2023/01/17 03:08:48;;;;;;;2.13;0.98;;;;;;;;;;5094386;28;20048;-87
2023/01/17 03:11:15;;;;;;;1.08;0.98;;;;;;;;;;5093561;28;20134;-86
2023/01/17 03:13:43;;;;;;;1.83;0.93;;;;;;;;;;5094102;28;20501;-86
2023/01/17 03:16:14;;;;;;;1.58;1.10;;;;;;;;;;5093794;28;20113;-88
2023/01/17 03:18:41;;;;;;;1.23;0.98;;;;;;;;;;5094375;28;20052;-85
2023/01/17 03:21:08;;;;;;;1.00;0.73;;;;;;;;;;5095235;28;20046;-85
2023/01/17 03:23:35;;;;;;;1.55;0.90;;;;;;;;;;5093860;28;20074;-86
2023/01/17 03:26:03;;;;;;;0.60;0.60;;;;;;;;;;5093800;28;20055;-86
2023/01/17 03:28:30;;;;;;;0.60;0.60;;;;;;;;;;5093600;28;20054;-85
2023/01/17 03:30:58;;;;;;;0.77;0.77;;;;;;;;;;5093897;28;20064;-88
2023/01/17 03:33:25;;;;;;;1.95;0.82;;;;;;;;;;5094693;28;20044;-86
2023/01/17 03:35:53;;;;;;;1.00;0.90;;;;;;;;;;5093602;28;20052;-88
2023/01/17 03:38:20;;;;;;;0.93;0.70;;;;;;;;;;5093670;28;20068;-86
2023/01/17 03:40:47;;;;;;;1.52;0.90;;;;;;;;;;5093759;28;20087;-86
2023/01/17 03:43:17;;;;;;;1.63;0.90;;;;;;;;;;5093706;28;20131;-87
2023/01/17 03:45:48;;;;;;;1.48;0.73;;;;;;;;;;5094700;28;20423;-86
2023/01/17 03:48:15;;;;;;;0.68;0.65;;;;;;;;;;5093424;28;20044;-86
2023/01/17 03:50:42;;;;;;;1.55;1.00;;;;;;;;;;5093666;28;20052;-86
2023/01/17 03:53:09;;;;;;;2.03;0.93;;;;;;;;;;5093594;28;20048;-86
2023/01/17 03:55:36;;;;;;;1.42;0.70;;;;;;;;;;5093217;28;20079;-87
2023/01/17 03:58:04;;;;;;;3.90;0.77;;;;;;;;;;5093458;28;20480;-87
2023/01/17 04:00:31;;;;;;;1.00;0.93;;;;;;;;;;5093416;28;20060;-86
2023/01/17 04:02:59;;;;;;;1.00;0.90;;;;;;;;;;5093084;28;20044;-87
2023/01/17 04:05:26;;;;;;;1.52;0.93;;;;;;;;;;5093245;28;20048;-87
2023/01/17 04:07:53;;;;;;;1.10;0.60;;;;;;;;;;5093103;28;20048;-86
2023/01/17 04:10:20;;;;;;;0.90;0.90;;;;;;;;;;5092876;28;20052;-86
2023/01/17 04:12:47;;;;;;;1.38;1.00;;;;;;;;;;5093361;28;20056;-86
2023/01/17 04:15:15;;;;;;;2.05;0.52;;;;;;;;;;5092955;28;20058;-86
2023/01/17 04:17:42;;;;;;;0.70;0.70;;;;;;;;;;5093181;28;20476;-86
2023/01/17 04:20:17;;;;;;;1.48;0.77;;;;;;;;;;5093408;28;20047;-86
2023/01/17 04:22:45;;;;;;;1.55;1.02;;;;;;;;;;5092987;28;20122;-86
2023/01/17 04:25:12;;;;;;;0.57;0.50;;;;;;;;;;5093062;28;20052;-87
2023/01/17 04:27:39;;;;;;;2.35;0.80;;;;;;;;;;5092655;28;20048;-86
2023/01/17 04:30:07;;;;;;;1.30;0.80;;;;;;;;;;5092641;28;20050;-87
2023/01/17 04:32:34;;;;;;;0.60;0.60;;;;;;;;;;5092778;28;20440;-86
2023/01/17 04:35:01;;;;;;;1.15;1.02;;;;;;;;;;5092748;28;20058;-86
2023/01/17 04:37:29;;;;;;;0.63;0.63;;;;;;;;;;5092584;28;20044;-86
2023/01/17 04:39:56;;;;;;;1.08;0.88;;;;;;;;;;5093802;28;20411;-87
2023/01/17 04:42:23;;;;;;;0.73;0.70;;;;;;;;;;5092719;28;20411;-86
2023/01/17 04:44:50;;;;;;;0.77;0.77;;;;;;;;;;5091499;28;20523;-86
2023/01/17 04:47:17;;;;;;;6.30;0.77;;;;;;;;;;5092703;28;20070;-87
2023/01/17 04:49:44;;;;;;;2.70;0.77;;;;;;;;;;5092476;28;20518;-86
2023/01/17 04:52:12;;;;;;;0.82;0.52;;;;;;;;;;5092608;28;20047;-87
2023/01/17 04:54:39;;;;;;;1.05;0.80;;;;;;;;;;5092725;28;20056;-86
2023/01/17 04:57:06;;;;;;;0.95;0.93;;;;;;;;;;5092422;28;20066;-86
2023/01/17 04:59:33;;;;;;;3.35;1.10;;;;;;;;;;5092680;28;20055;-87
2023/01/17 05:02:01;;;;;;;1.00;0.80;;;;;;;;;;5092773;28;20048;-86
2023/01/17 05:04:28;;;;;;;0.90;0.75;;;;;;;;;;5092539;28;20109;-86
2023/01/17 05:06:55;;;;;;;1.33;0.95;;;;;;;;;;5092512;28;20419;-85
2023/01/17 05:09:22;;;;;;;0.75;0.75;;;;;;;;;;5092162;28;20481;-86
2023/01/17 05:11:50;;;;;;;1.83;0.70;;;;;;;;;;5092188;28;20127;-86
2023/01/17 05:14:17;;;;;;;1.02;0.88;;;;;;;;;;5092120;28;20047;-85
2023/01/17 05:16:44;;;;;;;0.90;0.70;;;;;;;;;;5091997;28;20139;-86
2023/01/17 05:19:11;;;;;;;3.45;0.98;;;;;;;;;;5092411;28;20067;-86
2023/01/17 05:21:39;;;;;;;0.93;0.57;;;;;;;;;;5092270;28;20136;-87
2023/01/17 05:24:06;;;;;;;1.27;0.73;;;;;;;;;;5092432;28;20055;-87
2023/01/17 05:26:33;;;;;;;2.00;1.00;;;;;;;;;;5092126;28;20056;-85
2023/01/17 05:29:01;;;;;;;1.65;1.02;;;;;;;;;;5091970;28;20052;-86
2023/01/17 05:31:28;;;;;;;2.75;0.90;;;;;;;;;;5092051;28;20070;-86
2023/01/17 05:33:56;;;;;;;0.90;0.77;;;;;;;;;;5093145;28;20048;-86
2023/01/17 05:36:23;;;;;;;1.67;0.90;;;;;;;;;;5097004;28;20063;-85
2023/01/17 05:38:50;;;;;;;2.42;0.90;;;;;;;;;;5095868;28;20044;-85
2023/01/17 05:41:17;;;;;;;1.60;0.80;;;;;;;;;;5096031;28;20074;-86
2023/01/17 05:43:44;;;;;;;1.83;1.60;;;;;;;;;;5095963;28;20044;-86
2023/01/17 05:46:12;;;;;;;2.75;1.10;;;;;;;;;;5095752;28;20052;-85
2023/01/17 05:48:39;;;;;;;0.77;0.77;;;;;;;;;;5096060;28;20052;-86
2023/01/17 05:51:06;;;;;;;2.78;1.10;;;;;;;;;;5095793;28;20044;-85
2023/01/17 05:53:34;;;;;;;3.15;2.40;;;;;;;;;;5095996;28;20048;-85
2023/01/17 05:56:01;;;;;;;5.40;1.33;;;;;;;;;;5095771;28;20070;-86
2023/01/17 05:58:29;;;;;;;1.73;1.55;;;;;;;;;;5095450;28;20040;-86
2023/01/17 06:00:56;;;;;;;1.58;1.10;;;;;;;;;;5095542;28;20101;-86
2023/01/17 06:03:23;;;;;;;1.88;0.88;;;;;;;;;;5095822;28;20040;-86
2023/01/17 06:05:50;;;;;;;2.72;2.53;;;;;;;;;;5096120;28;20139;-87
2023/01/17 06:08:18;;;;;;;5.40;1.55;;;;;;;;;;5095814;28;20052;-87
2023/01/17 06:10:45;;;;;;;1.92;1.02;;;;;;;;;;5095368;28;20064;-86
2023/01/17 06:13:14;;;;;;;2.42;1.10;;;;;;;;;;5095525;28;20043;-86
2023/01/17 06:15:41;;;;;;;1.38;1.20;;;;;;;;;;5095419;28;20074;-87
2023/01/17 06:18:10;;;;;;;0.75;0.75;;;;;;;;;;5095439;28;20048;-86
2023/01/17 06:20:38;;;;;;;1.55;1.23;;;;;;;;;;5095329;28;20048;-87
2023/01/17 06:23:06;;;;;;;1.52;1.00;;;;;;;;;;5095240;28;20135;-86
2023/01/17 06:25:44;;;;;;;1.10;1.00;;;;;;;;;;5095203;28;20093;-87
2023/01/17 06:28:13;;;;;;;4.05;1.33;;;;;;;;;;5095056;28;20059;-86
2023/01/17 06:30:40;;;;;;;2.63;0.98;;;;;;;;;;5094784;28;20592;-86
2023/01/17 06:33:07;;;;;;;2.50;1.00;;;;;;;;;;5095041;28;20476;-86
2023/01/17 06:35:37;;;;;;;1.83;0.90;;;;;;;;;;5095723;28;20393;-86
2023/01/17 06:38:04;;;;;;;2.97;1.00;;;;;;;;;;5094791;28;20126;-85
2023/01/17 06:40:32;;;;;;;1.20;1.10;;;;;;;;;;5094759;28;20082;-85
2023/01/17 06:43:00;;;;;;;4.32;1.30;;;;;;;;;;5094998;28;20560;-87
2023/01/17 06:45:28;;;;;;;1.48;0.98;;;;;;;;;;5093638;28;20067;-86
2023/01/17 06:47:58;;;;;;;2.25;1.25;;;;;;;;;;5094942;28;20139;-86
2023/01/17 06:50:25;;;;;;;2.03;0.93;;;;;;;;;;5094589;28;20058;-86
2023/01/17 06:52:56;;;;;;;1.98;1.38;;;;;;;;;;5094814;28;20040;-84
2023/01/17 06:55:23;;;;;;;1.70;1.23;;;;;;;;;;5096122;28;20093;-86
2023/01/17 06:57:51;;;;;;;1.70;1.00;;;;;;;;;;5095004;28;20055;-85
2023/01/17 07:00:18;;;;;;;1.15;0.80;;;;;;;;;;5095978;28;20050;-85
2023/01/17 07:02:48;;;;;;;4.82;1.10;;;;;;;;;;5095154;28;20090;-86
2023/01/17 07:05:16;;;;;;;2.08;0.85;;;;;;;;;;5095111;28;20072;-87
2023/01/17 07:07:43;;;;;;;3.10;1.00;;;;;;;;;;5094509;28;20056;-85
2023/01/17 07:10:11;;;;;;;4.47;0.90;;;;;;;;;;5094147;28;20131;-86
2023/01/17 07:12:39;;;;;;;4.43;1.45;;;;;;;;;;5094234;28;20503;-86
2023/01/17 07:15:06;;;;;;;1.13;0.70;;;;;;;;;;5094408;28;20066;-85
2023/01/17 07:17:34;;;;;;;1.27;0.93;;;;;;;;;;5094021;28;20527;-86
2023/01/17 07:20:01;;;;;;;4.25;1.15;;;;;;;;;;5094366;28;20078;-86
2023/01/17 07:22:28;;;;;;;1.02;0.70;;;;;;;;;;5094063;28;20138;-84
2023/01/17 07:24:57;;;;;;;2.53;0.80;;;;;;;;;;5093913;28;20040;-86
2023/01/17 07:27:26;;;;;;;5.10;1.00;;;;;;;;;;5093996;28;20133;-87
2023/01/17 07:29:53;;;;;;;1.20;0.80;;;;;;;;;;5093825;28;20056;-86
2023/01/17 07:32:21;;;;;;;1.10;0.90;;;;;;;;;;5093978;28;20055;-86
2023/01/17 07:34:49;;;;;;;1.98;0.95;;;;;;;;;;5093954;28;20048;-87
2023/01/17 07:37:18;;;;;;;3.28;1.10;;;;;;;;;;5093755;28;20547;-86
2023/01/17 07:39:46;;;;;;;1.08;0.70;;;;;;;;;;5093668;28;20051;-85
2023/01/17 07:42:13;;;;;;;1.10;0.73;;;;;;;;;;5093851;28;20408;-87
2023/01/17 07:44:42;;;;;;;1.23;1.13;;;;;;;;;;5093909;28;20056;-87
2023/01/17 07:47:10;;;;;;;3.70;1.08;;;;;;;;;;5093740;28;20052;-87
2023/01/17 07:49:37;;;;;;;1.65;0.90;;;;;;;;;;5093637;28;20048;-87
2023/01/17 07:52:08;;;;;;;1.92;0.82;;;;;;;;;;5093716;28;20393;-87
2023/01/17 07:54:35;;;;;;;2.20;1.00;;;;;;;;;;5093644;28;20048;-86
2023/01/17 07:57:03;;;;;;;1.77;0.88;;;;;;;;;;5092643;28;20048;-86
2023/01/17 07:59:32;;;;;;;2.30;0.70;;;;;;;;;;5093436;28;20040;-87
2023/01/17 08:01:59;;;;;;;0.88;0.80;;;;;;;;;;5093306;28;20127;-86
2023/01/17 08:04:33;;;;;;;0.82;0.82;;;;;;;;;;5093301;28;20054;-85
2023/01/17 08:07:01;;;;;;;4.22;0.90;;;;;;;;;;5093463;28;20078;-86
2023/01/17 08:09:28;;;;;;;1.50;0.80;;;;;;;;;;5093077;28;20059;-86
2023/01/17 08:11:55;;;;;;;2.15;0.75;;;;;;;;;;5094419;28;20639;-86
2023/01/17 08:14:23;;;;;;;1.42;1.17;;;;;;;;;;5094476;28;20131;-87
2023/01/17 08:16:50;;;;;;;2.00;0.73;;;;;;;;;;5093385;28;20052;-86
2023/01/17 08:19:17;;;;;;;1.65;0.90;;;;;;;;;;5095324;28;20051;-86
2023/01/17 08:21:44;;;;;;;2.03;0.75;;;;;;;;;;5093958;28;20055;-86
2023/01/17 08:24:12;;;;;;;1.73;0.80;;;;;;;;;;5092983;28;20101;-87
2023/01/17 08:26:39;;;;;;;0.80;0.77;;;;;;;;;;5093204;28;20062;-86
2023/01/17 08:29:07;;;;;;;2.00;1.00;;;;;;;;;;5093066;28;20471;-87
2023/01/17 08:31:35;;;;;;;1.27;0.85;;;;;;;;;;5093996;28;20050;-87
2023/01/17 08:34:02;;;;;;;2.72;1.00;;;;;;;;;;5092967;28;20118;-87
2023/01/17 08:36:30;;;;;;;0.88;0.75;;;;;;;;;;5092913;28;20048;-87
2023/01/17 08:38:57;;;;;;;2.15;0.88;;;;;;;;;;5093015;28;20066;-87
2023/01/17 08:41:27;;;;;;;2.15;1.00;;;;;;;;;;5092799;28;20549;-87
2023/01/17 08:43:54;;;;;;;1.73;0.90;;;;;;;;;;5092956;28;20098;-87
2023/01/17 08:46:21;;;;;;;1.92;1.00;;;;;;;;;;5092942;28;20482;-88
2023/01/17 08:48:54;;;;;;;3.45;0.90;;;;;;;;;;5092633;28;20423;-87
2023/01/17 08:51:25;;;;;;;1.40;1.08;;;;;;;;;;5092411;28;20082;-86
2023/01/17 08:53:53;;;;;;;0.82;0.82;;;;;;;;;;5092688;28;20055;-86
2023/01/17 08:56:20;;;;;;;1.73;1.00;;;;;;;;;;5092473;28;20048;-86
2023/01/17 08:58:47;;;;;;;1.50;0.88;;;;;;;;;;5092608;28;20469;-87
2023/01/17 09:01:14;;;;;;;2.33;1.08;;;;;;;;;;5092515;28;20054;-86
2023/01/17 09:03:42;;;;;;;0.90;0.90;;;;;;;;;;5092264;28;20074;-84
2023/01/17 09:06:10;;;;;;;2.90;0.90;;;;;;;;;;5093024;28;20052;-85
2023/01/17 09:08:38;;;;;;;1.60;0.88;;;;;;;;;;5092672;28;20044;-85
2023/01/17 09:11:06;;;;;;;1.15;0.80;;;;;;;;;;5097342;28;20052;-85
2023/01/17 09:13:33;;;;;;;1.50;0.57;;;;;;;;;;5096573;28;20440;-87
2023/01/17 09:16:01;;;;;;;1.05;0.73;;;;;;;;;;5096448;28;20140;-87
2023/01/17 09:18:29;;;;;;;1.23;0.80;;;;;;;;;;5096594;28;20048;-86
2023/01/17 09:20:58;;;;;;;1.30;0.70;;;;;;;;;;5096387;28;20052;-86
2023/01/17 09:23:26;;;;;;;1.95;0.80;;;;;;;;;;5096360;28;20138;-87
2023/01/17 09:25:54;;;;;;;0.70;0.68;;;;;;;;;;5096094;28;20056;-86
2023/01/17 09:28:21;;;;;;;1.35;0.75;;;;;;;;;;5096216;28;20050;-86
2023/01/17 09:30:49;;;;;;;2.30;1.10;;;;;;;;;;5096069;28;20040;-85
2023/01/17 09:33:16;;;;;;;1.63;1.00;;;;;;;;;;5096352;28;20079;-86
2023/01/17 09:35:44;;;;;;;2.47;1.00;;;;;;;;;;5096195;28;20052;-86
2023/01/17 09:38:12;;;;;;;2.10;0.65;;;;;;;;;;5096116;28;20496;-86
2023/01/17 09:40:42;;;;;;;0.63;0.63;;;;;;;;;;5096049;28;20062;-86
2023/01/17 09:43:17;;;;;;;0.65;0.65;;;;;;;;;;5095801;28;20054;-86
2023/01/17 09:45:45;;;;;;;1.00;0.60;;;;;;;;;;5095939;28;20044;-85
2023/01/17 09:48:16;;;;;;;0.77;0.50;;;;;;;;;;5095603;28;20079;-85
2023/01/17 09:50:47;;;;;;;0.90;0.80;;;;;;;;;;5095748;28;20055;-85
2023/01/17 09:53:17;;;;;;;0.75;0.70;;;;;;;;;;5095821;28;20056;-86
2023/01/17 09:55:47;;;;;;;1.25;0.60;;;;;;;;;;5096781;28;20134;-85
2023/01/17 09:58:41;;;;;;;2.25;0.73;;;;;;;;;;5095529;28;20054;-86
2023/01/17 10:01:26;;;;;;;1.33;1.23;;;;;;;;;;5058443;28;20048;-86
2023/01/17 10:03:54;;;;;;;0.90;0.90;;;;;;;;;;5095614;28;20056;-86
2023/01/17 10:06:21;;;;;;;0.98;0.98;;;;;;;;;;5095439;28;20055;-86
2023/01/17 10:09:02;;;;;;;0.80;0.80;;;;;;;;;;5095842;28;20054;-86
2023/01/17 10:11:32;;;;;;;2.22;0.80;;;;;;;;;;5095266;28;20532;-86
2023/01/17 10:14:13;;;;;;;1.27;0.80;;;;;;;;;;5095428;28;20062;-86
2023/01/17 10:16:59;;;;;;;3.00;1.13;;;;;;;;;;5095078;28;20515;-86
2023/01/17 10:19:46;;;;;;;1.10;0.80;;;;;;;;;;5095125;28;20055;-86
2023/01/17 10:22:31;;;;;;;0.82;0.70;;;;;;;;;;5095171;28;20048;-86
2023/01/17 10:25:17;;;;;;;2.13;1.00;;;;;;;;;;5095267;28;20105;-86
2023/01/17 10:27:54;;;;;;;4.10;0.90;;;;;;;;;;5095471;28;20052;-87
2023/01/17 10:30:23;;;;;;;1.67;1.05;;;;;;;;;;5095069;28;20062;-86
2023/01/17 10:32:50;;;;;;;2.03;1.30;;;;;;;;;;5095059;28;20062;-86
2023/01/17 10:35:23;;;;;;;2.72;1.20;;;;;;;;;;5094822;28;20071;-86
2023/01/17 10:37:55;;;;;;;2.67;1.25;;;;;;;;;;5095158;28;20068;-87
2023/01/17 10:40:33;;;;;;;1.20;1.10;;;;;;;;;;5097687;28;20052;-86
2023/01/17 10:43:04;;;;;;;2.35;1.00;;;;;;;;;;5094873;28;20052;-87
2023/01/17 10:45:35;;;;;;;1.70;1.05;;;;;;;;;;5093352;28;20054;-86
2023/01/17 10:48:12;;;;;;;1.92;1.20;;;;;;;;;;5094730;28;20052;-86
2023/01/17 10:50:45;;;;;;;1.63;0.90;;;;;;;;;;5095075;28;20059;-87
2023/01/17 10:53:13;;;;;;;;;;;;;;;;;;5095189;28;20044;-86
2023/01/17 10:55:52;;;;;;;1.10;0.80;;;;;;;;;;5094743;28;20003;-87
2023/01/17 10:58:19;;;;;;;2.88;0.70;;;;;;;;;;5094603;28;20048;-87
2023/01/17 11:00:52;;;;;;;0.55;0.55;;;;;;;;;;5094558;28;20575;-86
2023/01/17 11:03:20;;;;;;;4.28;1.27;;;;;;;;;;5094436;28;20340;-87
2023/01/17 11:06:07;;;;;;;2.10;0.73;;;;;;;;;;5094520;28;20390;-86
2023/01/17 11:08:52;;;;;;;0.95;0.80;;;;;;;;;;5094549;28;20060;-87
2023/01/17 11:11:29;;;;;;;1.73;0.98;;;;;;;;;;5094511;28;20044;-87
2023/01/17 11:14:05;;;;;;;2.03;0.90;;;;;;;;;;5094478;28;20095;-87
2023/01/17 11:16:34;;;;;;;1.55;1.00;;;;;;;;;;5093998;28;20058;-87
2023/01/17 11:19:07;;;;;;;2.33;1.00;;;;;;;;;;5094659;28;20052;-87
2023/01/17 11:21:36;;;;;;;2.47;1.02;;;;;;;;;;5095075;28;20056;-87
2023/01/17 11:24:11;;;;;;;0.82;0.82;;;;;;;;;;5094517;28;20044;-87
2023/01/17 11:26:46;;;;;;;2.35;0.90;;;;;;;;;;5094563;28;20075;-86
2023/01/17 11:29:22;;;;;;;1.52;0.85;;;;;;;;;;5094382;28;20135;-87
2023/01/17 11:31:49;;;;;;;9.07;1.60;;;;;;;;;;5093670;28;20131;-87
2023/01/17 11:34:18;;;;;;;1.48;0.88;;;;;;;;;;5094285;28;20048;-87
2023/01/17 11:36:45;;;;;;;5.88;1.00;;;;;;;;;;5094173;28;20051;-87
2023/01/17 11:39:18;;;;;;;1.92;0.90;;;;;;;;;;5094308;28;20499;-86
2023/01/17 11:41:46;;;;;;;1.17;0.90;;;;;;;;;;5094014;28;20056;-87
2023/01/17 11:44:27;;;;;;;5.78;1.23;;;;;;;;;;5094019;28;20094;-87
2023/01/17 11:47:15;;;;;;;1.92;0.63;;;;;;;;;;5093845;28;20048;-85
2023/01/17 11:49:44;;;;;;;1.15;0.70;;;;;;;;;;5093689;28;20080;-86
2023/01/17 11:52:21;;;;;;;6.82;1.05;;;;;;;;;;5093496;28;20051;-86
2023/01/17 11:54:48;;;;;;;1.67;0.70;;;;;;;;;;5093609;28;20502;-86
2023/01/17 11:57:24;;;;;;;2.20;0.65;;;;;;;;;;5093365;28;20056;-86
2023/01/17 11:59:58;;;;;;;5.00;1.15;;;;;;;;;;5093391;28;20048;-87
2023/01/17 12:02:54;;;;;;;1.90;0.98;;;;;;;;;;5093480;28;20131;-87
2023/01/17 12:05:22;;;;;;;1.60;0.90;;;;;;;;;;5093206;28;20089;-86
2023/01/17 12:07:56;;;;;;;2.28;0.70;;;;;;;;;;5094419;28;20070;-87
2023/01/17 12:10:27;;;;;;;1.48;0.82;;;;;;;;;;5093266;28;20131;-86
2023/01/17 12:16:31;;;;;;;1.55;0.77;;;;;;;;;;5094106;28;20052;-86
2023/01/17 12:19:17;;;;;;;1.05;0.60;;;;;;;;;;5093248;28;20481;-87
2023/01/17 12:22:10;;;;;;;1.77;0.57;;;;;;;;;;5093183;28;20060;-87
2023/01/17 12:24:46;;;;;;;2.30;1.08;;;;;;;;;;5093235;28;20047;-86
2023/01/17 12:27:25;;;;;;;0.90;0.77;;;;;;;;;;5092956;28;20051;-86
2023/01/17 12:30:11;;;;;;;2.75;0.70;;;;;;;;;;5093238;28;20063;-86
2023/01/17 12:33:11;;;;;;;2.53;0.55;;;;;;;;;;5092594;28;20048;-86
2023/01/17 12:35:49;;;;;;;2.08;0.70;;;;;;;;;;5039011;28;20044;-87
2023/01/17 12:38:19;;;;;;;5.70;1.27;;;;;;;;;;5092711;28;20047;-86
2023/01/17 12:41:25;;;;;;;4.28;0.95;;;;;;;;;;5093104;28;20051;-86
2023/01/17 12:43:57;;;;;;;0.80;0.80;;;;;;;;;;5089238;28;20043;-86
2023/01/17 12:46:28;;;;;;;0.55;0.55;;;;;;;;;;5092861;28;20056;-86
2023/01/17 12:48:58;;;;;;;0.90;0.43;;;;;;;;;;5092725;28;20138;-85
2023/01/17 12:51:28;;;;;;;1.27;0.80;;;;;;;;;;5092609;28;20044;-86
2023/01/17 12:54:01;;;;;;;3.67;0.70;;;;;;;;;;5092739;28;20138;-86
2023/01/17 12:56:31;;;;;;;1.52;0.75;;;;;;;;;;5093440;28;20052;-85
2023/01/17 12:59:17;;;;;;;0.70;0.70;;;;;;;;;;5092715;28;20052;-86
2023/01/17 13:01:58;;;;;;;3.08;1.63;;;;;;;;;;5092566;28;20070;-86
2023/01/17 13:04:37;;;;;;;4.40;2.67;;;;;;;;;;5092816;28;20048;-86
2023/01/17 13:07:30;;;;;;;1.02;0.93;;;;;;;;;;5092562;28;20052;-86
2023/01/17 13:10:02;;;;;;;2.60;1.10;;;;;;;;;;5092577;28;20055;-87
2023/01/17 13:12:32;;;;;;;2.10;0.85;;;;;;;;;;5091999;28;20079;-86
2023/01/17 13:15:02;;;;;;;1.83;0.80;;;;;;;;;;5092308;28;20452;-87
2023/01/17 13:17:43;;;;;;;0.75;0.75;;;;;;;;;;5091259;28;20411;-86
2023/01/17 13:20:30;;;;;;;3.40;1.05;;;;;;;;;;5092156;28;20048;-87
2023/01/17 13:23:03;;;;;;;2.22;1.17;;;;;;;;;;5092380;28;20064;-86
2023/01/17 13:25:30;;;;;;;3.17;0.82;;;;;;;;;;5092053;28;20131;-87
2023/01/17 13:28:12;;;;;;;3.13;0.82;;;;;;;;;;5092399;28;20052;-87
2023/01/17 13:30:45;;;;;;;2.53;1.30;;;;;;;;;;5093435;28;20048;-87
2023/01/17 13:33:25;;;;;;;4.68;1.52;;;;;;;;;;5091985;28;20488;-86
2023/01/17 13:35:57;;;;;;;9.13;1.55;;;;;;;;;;5092240;28;20052;-86
2023/01/17 13:38:34;;;;;;;10.60;1.27;;;;;;;;;;5092328;28;20101;-87
2023/01/17 13:41:21;;;;;;;2.78;1.00;;;;;;;;;;5092197;28;20059;-87
2023/01/17 13:46:53;;;;;;;9.93;1.10;;;;;;;;;;5092538;28;20052;-86
2023/01/17 13:49:22;;;;;;;6.95;1.10;;;;;;;;;;5091984;28;20052;-86
2023/01/17 13:52:11;;;;;;;5.15;1.27;;;;;;;;;;5091897;28;20090;-86
2023/01/17 13:54:45;;;;;;;9.05;1.33;;;;;;;;;;5092382;28;20056;-87
2023/01/17 13:57:25;;;;;;;1.65;1.00;;;;;;;;;;5095630;28;20495;-87
2023/01/17 13:59:56;;;;;;;4.97;1.25;;;;;;;;;;5094740;28;20070;-86
2023/01/17 14:02:32;;;;;;;9.73;1.98;;;;;;;;;;5094967;28;20138;-86
2023/01/17 14:05:11;;;;;;;11.48;1.90;;;;;;;;;;5094771;28;20056;-87
2023/01/17 14:07:48;;;;;;;7.88;1.50;;;;;;;;;;5095009;28;20059;-86
2023/01/17 14:10:25;;;;;;;6.93;1.27;;;;;;;;;;5095006;28;20051;-88
2023/01/17 14:12:52;;;;;;;9.18;1.55;;;;;;;;;;5094755;28;20066;-88
2023/01/17 14:15:22;;;;;;;8.82;1.50;;;;;;;;;;5094539;28;20066;-87
2023/01/17 14:17:51;;;;;;;5.72;1.10;;;;;;;;;;5094707;28;20059;-87
2023/01/17 14:20:24;;;;;;;1.10;1.00;;;;;;;;;;5094488;28;20050;-86
2023/01/17 14:22:54;;;;;;;2.45;0.80;;;;;;;;;;5094672;28;20050;-87
2023/01/17 14:25:27;;;;;;;1.35;0.85;;;;;;;;;;5094286;28;20056;-87
2023/01/17 14:27:56;;;;;;;0.85;0.85;;;;;;;;;;5094441;28;20040;-86
2023/01/17 14:30:32;;;;;;;2.15;0.70;;;;;;;;;;5094121;28;20097;-87
2023/01/17 14:33:09;;;;;;;5.15;1.00;;;;;;;;;;5094205;28;20083;-86
2023/01/17 14:35:38;;;;;;;5.68;1.25;;;;;;;;;;5094257;28;20549;-86
2023/01/17 14:38:15;;;;;;;4.53;0.70;;;;;;;;;;5094591;28;20056;-86
2023/01/17 14:40:48;;;;;;;5.53;0.95;;;;;;;;;;5094122;28;20059;-87
2023/01/17 14:43:18;;;;;;;3.47;0.90;;;;;;;;;;5094106;28;20044;-87
2023/01/17 14:45:46;;;;;;;8.30;1.42;;;;;;;;;;5094197;28;20450;-86
2023/01/17 14:48:13;;;;;;;3.97;0.98;;;;;;;;;;5094189;28;20134;-88
2023/01/17 14:50:41;;;;;;;4.05;1.58;;;;;;;;;;5094105;28;20051;-88
2023/01/17 14:53:12;;;;;;;9.48;1.70;;;;;;;;;;5093767;28;20052;-87
2023/01/17 14:55:48;;;;;;;7.90;3.05;;;;;;;;;;5094128;28;20071;-86
2023/01/17 14:58:17;;;;;;;4.43;2.08;;;;;;;;;;5093982;28;20052;-86
2023/01/17 15:00:45;;;;;;;5.60;1.58;;;;;;;;;;5093863;28;20074;-86
2023/01/17 15:03:13;;;;;;;6.88;1.40;;;;;;;;;;5094068;28;20044;-87
2023/01/17 15:05:41;;;;;;;7.90;1.35;;;;;;;;;;5093539;28;20156;-86
2023/01/17 15:08:13;;;;;;;6.68;1.63;;;;;;;;;;5092702;28;20058;-87
2023/01/17 15:10:46;;;;;;;9.65;2.22;;;;;;;;;;5093779;28;20074;-86
2023/01/17 15:13:16;;;;;;;8.68;2.13;;;;;;;;;;5094686;28;20054;-88
2023/01/17 15:15:44;;;;;;;10.38;2.10;;;;;;;;;;5093317;28;20462;-89
2023/01/17 15:18:14;;;;;;;9.30;2.30;;;;;;;;;;5093768;28;20056;-89
2023/01/17 15:20:44;;;;;;;4.82;2.00;;;;;;;;;;5093413;28;20433;-89
2023/01/17 15:23:17;;;;;;;8.95;3.10;;;;;;;;;;5092978;28;20139;-88
2023/01/17 15:25:46;;;;;;;5.63;2.13;;;;;;;;;;5093372;28;20071;-88
2023/01/17 15:28:14;;;;;;;13.25;2.50;;;;;;;;;;5093551;28;20058;-88
2023/01/17 15:30:59;;;;;;;3.80;2.38;;;;;;;;;;5093152;28;20382;-87
2023/01/17 15:33:27;;;;;;;2.60;2.40;;;;;;;;;;5093033;28;20055;-89
2023/01/17 15:36:05;;;;;;;9.35;2.17;;;;;;;;;;5093251;28;20040;-88
2023/01/17 15:38:32;;;;;;;9.18;2.75;;;;;;;;;;5093331;28;20050;-88
2023/01/17 15:41:13;;;;;;;2.75;2.42;;;;;;;;;;5093351;28;20072;-88
2023/01/17 15:43:40;;;;;;;10.15;2.90;;;;;;;;;;5093146;28;20040;-87
2023/01/17 15:46:20;;;;;;;6.97;3.20;;;;;;;;;;5092916;28;20058;-88
2023/01/17 15:48:47;;;;;;;22.95;11.95;;;;;;;;;;5092924;28;20104;-88
2023/01/17 15:51:29;;;;;;;18.70;9.55;;;;;;;;;;5092715;28;20052;-88
2023/01/17 15:53:56;;;;;;;10.85;6.88;;;;;;;;;;5092087;28;20052;-88
2023/01/17 15:56:30;;;;;;;15.68;3.75;;;;;;;;;;5092805;28;20058;-88
2023/01/17 15:59:16;;;;;;;4.75;3.25;;;;;;;;;;5091827;28;20059;-88
2023/01/17 16:01:51;;;;;;;5.28;3.50;;;;;;;;;;5092718;28;20411;-88
2023/01/17 16:04:32;;;;;;;5.10;3.20;;;;;;;;;;5092743;28;20097;-88
2023/01/17 16:07:19;;;;;;;4.75;2.97;;;;;;;;;;5092795;28;20047;-88
2023/01/17 16:09:47;;;;;;;4.70;2.97;;;;;;;;;;5092757;28;20052;-88
2023/01/17 16:12:14;;;;;;;7.78;3.40;;;;;;;;;;5092548;28;20048;-88
2023/01/17 16:14:42;;;;;;;4.47;3.78;;;;;;;;;;5092609;28;20066;-88
2023/01/17 16:17:30;;;;;;;11.27;4.60;;;;;;;;;;5092450;28;20060;-88
2023/01/17 16:19:57;;;;;;;9.48;5.30;;;;;;;;;;5092214;28;20056;-88
2023/01/17 16:22:25;;;;;;;7.28;4.75;;;;;;;;;;5092235;28;20485;-88
2023/01/17 16:24:55;;;;;;;7.20;4.68;;;;;;;;;;5092418;28;20054;-88
2023/01/17 16:27:22;;;;;;;10.82;6.10;;;;;;;;;;5091886;28;20047;-89
2023/01/17 16:29:50;;;;;;;8.18;5.13;;;;;;;;;;5092386;28;20109;-89
2023/01/17 16:32:17;;;;;;;8.15;4.10;;;;;;;;;;5091962;28;20052;-88